sensor_id;sensor_type;location;lat;lon;timestamp;P1;durP1;ratioP1;P2;durP2;ratioP2
11394;SDS011;5753;54.402;10.220;2023-07-22T00:01:01;19.50;;;6.75;;
11394;SDS011;5753;54.402;10.220;2023-07-22T00:03:27;9.02;;;7.78;;
11394;SDS011;5753;54.402;10.220;2023-07-22T00:06:06;12.02;;;7.68;;
11394;SDS011;5753;54.402;10.220;2023-07-22T00:08:33;9.18;;;6.80;;
11394;SDS011;5753;54.402;10.220;2023-07-22T00:11:00;8.38;;;6.97;;
11394;SDS011;5753;54.402;10.220;2023-07-22T00:13:26;13.88;;;7.57;;
11394;SDS011;5753;54.402;10.220;2023-07-22T00:15:56;11.40;;;7.28;;
11394;SDS011;5753;54.402;10.220;2023-07-22T00:18:24;11.90;;;6.50;;
11394;SDS011;5753;54.402;10.220;2023-07-22T00:20:52;12.82;;;7.72;;
11394;SDS011;5753;54.402;10.220;2023-07-22T00:23:19;13.38;;;9.48;;
11394;SDS011;5753;54.402;10.220;2023-07-22T00:25:46;9.55;;;7.47;;
11394;SDS011;5753;54.402;10.220;2023-07-22T00:28:12;9.27;;;7.80;;
11394;SDS011;5753;54.402;10.220;2023-07-22T00:30:39;12.73;;;8.23;;
11394;SDS011;5753;54.402;10.220;2023-07-22T00:33:05;10.25;;;9.13;;
11394;SDS011;5753;54.402;10.220;2023-07-22T00:35:31;14.55;;;8.95;;
11394;SDS011;5753;54.402;10.220;2023-07-22T00:37:58;10.90;;;9.23;;
11394;SDS011;5753;54.402;10.220;2023-07-22T00:40:25;13.45;;;9.48;;
11394;SDS011;5753;54.402;10.220;2023-07-22T00:42:51;12.02;;;8.10;;
11394;SDS011;5753;54.402;10.220;2023-07-22T00:45:17;14.00;;;8.32;;
11394;SDS011;5753;54.402;10.220;2023-07-22T00:47:43;9.63;;;7.68;;
11394;SDS011;5753;54.402;10.220;2023-07-22T00:50:10;9.82;;;8.82;;
11394;SDS011;5753;54.402;10.220;2023-07-22T00:52:37;11.20;;;7.10;;
11394;SDS011;5753;54.402;10.220;2023-07-22T00:55:04;10.15;;;8.05;;
11394;SDS011;5753;54.402;10.220;2023-07-22T00:57:30;11.90;;;10.50;;
11394;SDS011;5753;54.402;10.220;2023-07-22T00:59:57;10.07;;;8.57;;
11394;SDS011;5753;54.402;10.220;2023-07-22T01:02:23;13.50;;;10.55;;
11394;SDS011;5753;54.402;10.220;2023-07-22T01:04:49;10.20;;;7.90;;
11394;SDS011;5753;54.402;10.220;2023-07-22T01:07:17;15.80;;;10.02;;
11394;SDS011;5753;54.402;10.220;2023-07-22T01:09:43;13.48;;;9.40;;
11394;SDS011;5753;54.402;10.220;2023-07-22T01:12:10;13.30;;;8.38;;
11394;SDS011;5753;54.402;10.220;2023-07-22T01:14:38;10.60;;;7.85;;
11394;SDS011;5753;54.402;10.220;2023-07-22T01:17:07;9.73;;;7.35;;
11394;SDS011;5753;54.402;10.220;2023-07-22T01:19:35;9.18;;;7.68;;
11394;SDS011;5753;54.402;10.220;2023-07-22T01:22:05;17.83;;;9.88;;
11394;SDS011;5753;54.402;10.220;2023-07-22T01:24:35;11.02;;;8.13;;
11394;SDS011;5753;54.402;10.220;2023-07-22T01:27:03;10.55;;;8.98;;
11394;SDS011;5753;54.402;10.220;2023-07-22T01:29:33;11.00;;;8.52;;
11394;SDS011;5753;54.402;10.220;2023-07-22T01:31:59;10.55;;;7.00;;
11394;SDS011;5753;54.402;10.220;2023-07-22T01:34:25;12.95;;;8.90;;
11394;SDS011;5753;54.402;10.220;2023-07-22T01:36:51;11.77;;;8.10;;
11394;SDS011;5753;54.402;10.220;2023-07-22T01:39:19;9.43;;;7.15;;
11394;SDS011;5753;54.402;10.220;2023-07-22T01:41:46;19.27;;;7.20;;
11394;SDS011;5753;54.402;10.220;2023-07-22T01:44:12;10.02;;;6.88;;
11394;SDS011;5753;54.402;10.220;2023-07-22T01:46:39;7.97;;;6.45;;
11394;SDS011;5753;54.402;10.220;2023-07-22T01:49:07;8.98;;;6.05;;
11394;SDS011;5753;54.402;10.220;2023-07-22T01:51:35;12.27;;;6.03;;
11394;SDS011;5753;54.402;10.220;2023-07-22T01:54:08;7.40;;;6.65;;
11394;SDS011;5753;54.402;10.220;2023-07-22T01:56:35;6.95;;;5.82;;
11394;SDS011;5753;54.402;10.220;2023-07-22T01:59:01;8.88;;;5.95;;
11394;SDS011;5753;54.402;10.220;2023-07-22T02:01:27;9.43;;;5.53;;
11394;SDS011;5753;54.402;10.220;2023-07-22T02:03:54;11.07;;;4.47;;
11394;SDS011;5753;54.402;10.220;2023-07-22T02:06:20;8.70;;;6.90;;
11394;SDS011;5753;54.402;10.220;2023-07-22T02:08:46;6.00;;;5.18;;
11394;SDS011;5753;54.402;10.220;2023-07-22T02:11:12;7.05;;;6.32;;
11394;SDS011;5753;54.402;10.220;2023-07-22T02:13:38;6.60;;;5.53;;
11394;SDS011;5753;54.402;10.220;2023-07-22T02:16:05;6.38;;;4.78;;
11394;SDS011;5753;54.402;10.220;2023-07-22T02:18:31;6.10;;;4.45;;
11394;SDS011;5753;54.402;10.220;2023-07-22T02:20:57;10.30;;;4.97;;
11394;SDS011;5753;54.402;10.220;2023-07-22T02:23:23;11.68;;;5.70;;
11394;SDS011;5753;54.402;10.220;2023-07-22T02:25:50;6.07;;;5.20;;
11394;SDS011;5753;54.402;10.220;2023-07-22T02:28:17;5.85;;;3.88;;
11394;SDS011;5753;54.402;10.220;2023-07-22T02:30:49;8.05;;;4.50;;
11394;SDS011;5753;54.402;10.220;2023-07-22T02:33:20;6.00;;;5.25;;
11394;SDS011;5753;54.402;10.220;2023-07-22T02:35:47;5.97;;;3.72;;
11394;SDS011;5753;54.402;10.220;2023-07-22T02:38:14;6.55;;;3.60;;
11394;SDS011;5753;54.402;10.220;2023-07-22T02:40:40;6.25;;;3.10;;
11394;SDS011;5753;54.402;10.220;2023-07-22T02:43:06;6.07;;;4.93;;
11394;SDS011;5753;54.402;10.220;2023-07-22T02:45:33;5.68;;;4.05;;
11394;SDS011;5753;54.402;10.220;2023-07-22T02:47:59;3.72;;;2.83;;
11394;SDS011;5753;54.402;10.220;2023-07-22T02:50:25;9.20;;;5.10;;
11394;SDS011;5753;54.402;10.220;2023-07-22T02:52:52;5.65;;;3.85;;
11394;SDS011;5753;54.402;10.220;2023-07-22T02:55:18;3.45;;;2.72;;
11394;SDS011;5753;54.402;10.220;2023-07-22T02:57:44;4.18;;;3.80;;
11394;SDS011;5753;54.402;10.220;2023-07-22T03:00:11;5.65;;;4.78;;
11394;SDS011;5753;54.402;10.220;2023-07-22T03:02:39;8.20;;;4.65;;
11394;SDS011;5753;54.402;10.220;2023-07-22T03:05:08;7.65;;;4.05;;
11394;SDS011;5753;54.402;10.220;2023-07-22T03:07:35;7.90;;;4.90;;
11394;SDS011;5753;54.402;10.220;2023-07-22T03:10:02;11.93;;;4.35;;
11394;SDS011;5753;54.402;10.220;2023-07-22T03:12:28;5.70;;;3.38;;
11394;SDS011;5753;54.402;10.220;2023-07-22T03:14:55;3.95;;;2.50;;
11394;SDS011;5753;54.402;10.220;2023-07-22T03:17:21;7.13;;;4.53;;
11394;SDS011;5753;54.402;10.220;2023-07-22T03:19:47;22.83;;;3.83;;
11394;SDS011;5753;54.402;10.220;2023-07-22T03:22:14;5.82;;;4.10;;
11394;SDS011;5753;54.402;10.220;2023-07-22T03:24:46;3.78;;;2.92;;
11394;SDS011;5753;54.402;10.220;2023-07-22T03:27:13;8.90;;;3.90;;
11394;SDS011;5753;54.402;10.220;2023-07-22T03:29:42;4.88;;;4.07;;
11394;SDS011;5753;54.402;10.220;2023-07-22T03:32:08;7.82;;;4.10;;
11394;SDS011;5753;54.402;10.220;2023-07-22T03:34:34;8.07;;;4.35;;
11394;SDS011;5753;54.402;10.220;2023-07-22T03:37:00;10.02;;;5.15;;
11394;SDS011;5753;54.402;10.220;2023-07-22T03:39:26;9.15;;;3.47;;
11394;SDS011;5753;54.402;10.220;2023-07-22T03:41:52;5.40;;;3.63;;
11394;SDS011;5753;54.402;10.220;2023-07-22T03:44:18;10.20;;;4.10;;
11394;SDS011;5753;54.402;10.220;2023-07-22T03:46:44;5.78;;;2.15;;
11394;SDS011;5753;54.402;10.220;2023-07-22T03:49:10;12.15;;;5.32;;
11394;SDS011;5753;54.402;10.220;2023-07-22T03:51:37;7.13;;;2.97;;
11394;SDS011;5753;54.402;10.220;2023-07-22T03:54:03;6.90;;;2.50;;
11394;SDS011;5753;54.402;10.220;2023-07-22T03:56:29;7.10;;;4.05;;
11394;SDS011;5753;54.402;10.220;2023-07-22T03:58:55;4.45;;;3.97;;
11394;SDS011;5753;54.402;10.220;2023-07-22T04:01:21;5.40;;;2.55;;
11394;SDS011;5753;54.402;10.220;2023-07-22T04:03:47;4.95;;;3.53;;
11394;SDS011;5753;54.402;10.220;2023-07-22T04:06:13;3.20;;;2.75;;
11394;SDS011;5753;54.402;10.220;2023-07-22T04:08:39;6.68;;;3.25;;
11394;SDS011;5753;54.402;10.220;2023-07-22T04:11:05;4.72;;;4.18;;
11394;SDS011;5753;54.402;10.220;2023-07-22T04:13:31;7.68;;;3.72;;
11394;SDS011;5753;54.402;10.220;2023-07-22T04:15:57;4.97;;;3.00;;
11394;SDS011;5753;54.402;10.220;2023-07-22T04:18:23;8.18;;;3.65;;
11394;SDS011;5753;54.402;10.220;2023-07-22T04:20:54;6.60;;;3.25;;
11394;SDS011;5753;54.402;10.220;2023-07-22T04:23:22;3.55;;;3.25;;
11394;SDS011;5753;54.402;10.220;2023-07-22T04:25:48;5.95;;;4.32;;
11394;SDS011;5753;54.402;10.220;2023-07-22T04:28:14;7.35;;;3.70;;
11394;SDS011;5753;54.402;10.220;2023-07-22T04:30:40;5.65;;;3.67;;
11394;SDS011;5753;54.402;10.220;2023-07-22T04:33:07;9.77;;;4.18;;
11394;SDS011;5753;54.402;10.220;2023-07-22T04:35:40;7.63;;;3.05;;
11394;SDS011;5753;54.402;10.220;2023-07-22T04:38:07;5.28;;;3.60;;
11394;SDS011;5753;54.402;10.220;2023-07-22T04:40:33;9.95;;;4.97;;
11394;SDS011;5753;54.402;10.220;2023-07-22T04:42:59;5.97;;;4.15;;
11394;SDS011;5753;54.402;10.220;2023-07-22T04:45:26;7.43;;;4.53;;
11394;SDS011;5753;54.402;10.220;2023-07-22T04:47:52;5.10;;;3.63;;
11394;SDS011;5753;54.402;10.220;2023-07-22T04:50:18;10.32;;;4.75;;
11394;SDS011;5753;54.402;10.220;2023-07-22T04:52:46;6.20;;;5.18;;
11394;SDS011;5753;54.402;10.220;2023-07-22T04:55:13;7.65;;;5.75;;
11394;SDS011;5753;54.402;10.220;2023-07-22T04:57:39;10.32;;;4.85;;
11394;SDS011;5753;54.402;10.220;2023-07-22T05:00:13;6.93;;;3.97;;
11394;SDS011;5753;54.402;10.220;2023-07-22T05:02:41;8.43;;;5.47;;
11394;SDS011;5753;54.402;10.220;2023-07-22T05:05:09;9.25;;;5.15;;
11394;SDS011;5753;54.402;10.220;2023-07-22T05:07:35;4.93;;;3.28;;
11394;SDS011;5753;54.402;10.220;2023-07-22T05:10:01;8.45;;;4.35;;
11394;SDS011;5753;54.402;10.220;2023-07-22T05:12:27;5.30;;;3.95;;
11394;SDS011;5753;54.402;10.220;2023-07-22T05:14:53;6.90;;;3.47;;
11394;SDS011;5753;54.402;10.220;2023-07-22T05:17:19;4.22;;;3.83;;
11394;SDS011;5753;54.402;10.220;2023-07-22T05:19:46;5.60;;;3.50;;
11394;SDS011;5753;54.402;10.220;2023-07-22T05:22:13;4.18;;;2.92;;
11394;SDS011;5753;54.402;10.220;2023-07-22T05:24:40;3.22;;;2.92;;
11394;SDS011;5753;54.402;10.220;2023-07-22T05:27:06;5.03;;;3.08;;
11394;SDS011;5753;54.402;10.220;2023-07-22T05:29:32;5.38;;;3.88;;
11394;SDS011;5753;54.402;10.220;2023-07-22T05:31:58;6.47;;;3.25;;
11394;SDS011;5753;54.402;10.220;2023-07-22T05:34:24;2.95;;;2.55;;
11394;SDS011;5753;54.402;10.220;2023-07-22T05:36:50;5.55;;;3.40;;
11394;SDS011;5753;54.402;10.220;2023-07-22T05:39:16;10.55;;;4.80;;
11394;SDS011;5753;54.402;10.220;2023-07-22T05:41:43;5.07;;;3.50;;
11394;SDS011;5753;54.402;10.220;2023-07-22T05:44:09;2.97;;;2.70;;
11394;SDS011;5753;54.402;10.220;2023-07-22T05:46:35;6.57;;;2.85;;
11394;SDS011;5753;54.402;10.220;2023-07-22T05:49:03;4.07;;;2.13;;
11394;SDS011;5753;54.402;10.220;2023-07-22T05:51:29;7.22;;;3.65;;
11394;SDS011;5753;54.402;10.220;2023-07-22T05:53:55;4.55;;;1.77;;
11394;SDS011;5753;54.402;10.220;2023-07-22T05:56:22;2.40;;;2.20;;
11394;SDS011;5753;54.402;10.220;2023-07-22T05:58:48;4.00;;;2.42;;
11394;SDS011;5753;54.402;10.220;2023-07-22T06:01:14;2.78;;;2.03;;
11394;SDS011;5753;54.402;10.220;2023-07-22T06:03:40;3.20;;;1.90;;
11394;SDS011;5753;54.402;10.220;2023-07-22T06:06:08;3.50;;;1.52;;
11394;SDS011;5753;54.402;10.220;2023-07-22T06:08:35;2.03;;;1.75;;
11394;SDS011;5753;54.402;10.220;2023-07-22T06:11:01;3.70;;;2.53;;
11394;SDS011;5753;54.402;10.220;2023-07-22T06:13:27;4.80;;;1.70;;
11394;SDS011;5753;54.402;10.220;2023-07-22T06:15:53;2.47;;;1.85;;
11394;SDS011;5753;54.402;10.220;2023-07-22T06:18:19;7.40;;;1.67;;
11394;SDS011;5753;54.402;10.220;2023-07-22T06:20:45;1.95;;;1.52;;
11394;SDS011;5753;54.402;10.220;2023-07-22T06:23:11;2.88;;;1.83;;
11394;SDS011;5753;54.402;10.220;2023-07-22T06:25:37;2.92;;;1.65;;
11394;SDS011;5753;54.402;10.220;2023-07-22T06:28:04;2.67;;;1.50;;
11394;SDS011;5753;54.402;10.220;2023-07-22T06:30:31;3.80;;;3.45;;
11394;SDS011;5753;54.402;10.220;2023-07-22T06:32:57;3.08;;;1.95;;
11394;SDS011;5753;54.402;10.220;2023-07-22T06:35:23;1.00;;;0.90;;
11394;SDS011;5753;54.402;10.220;2023-07-22T06:37:49;1.45;;;1.27;;
11394;SDS011;5753;54.402;10.220;2023-07-22T06:40:16;1.85;;;1.00;;
11394;SDS011;5753;54.402;10.220;2023-07-22T06:42:42;1.45;;;1.35;;
11394;SDS011;5753;54.402;10.220;2023-07-22T06:45:08;1.65;;;1.38;;
11394;SDS011;5753;54.402;10.220;2023-07-22T06:47:35;2.25;;;0.80;;
11394;SDS011;5753;54.402;10.220;2023-07-22T06:50:01;3.35;;;1.38;;
11394;SDS011;5753;54.402;10.220;2023-07-22T06:52:29;3.13;;;1.10;;
11394;SDS011;5753;54.402;10.220;2023-07-22T06:54:58;2.20;;;0.90;;
11394;SDS011;5753;54.402;10.220;2023-07-22T06:57:24;5.05;;;0.80;;
11394;SDS011;5753;54.402;10.220;2023-07-22T06:59:51;1.20;;;1.08;;
11394;SDS011;5753;54.402;10.220;2023-07-22T07:02:20;1.55;;;1.35;;
11394;SDS011;5753;54.402;10.220;2023-07-22T07:04:47;3.08;;;0.88;;
11394;SDS011;5753;54.402;10.220;2023-07-22T07:07:13;3.97;;;0.70;;
11394;SDS011;5753;54.402;10.220;2023-07-22T07:09:41;0.98;;;0.65;;
11394;SDS011;5753;54.402;10.220;2023-07-22T07:12:07;7.63;;;2.90;;
11394;SDS011;5753;54.402;10.220;2023-07-22T07:14:34;1.15;;;1.05;;
11394;SDS011;5753;54.402;10.220;2023-07-22T07:17:01;2.35;;;1.75;;
11394;SDS011;5753;54.402;10.220;2023-07-22T07:19:27;2.10;;;1.05;;
11394;SDS011;5753;54.402;10.220;2023-07-22T07:21:53;1.58;;;1.20;;
11394;SDS011;5753;54.402;10.220;2023-07-22T07:24:20;1.45;;;1.30;;
11394;SDS011;5753;54.402;10.220;2023-07-22T07:26:46;4.00;;;2.22;;
11394;SDS011;5753;54.402;10.220;2023-07-22T07:29:12;2.05;;;1.17;;
11394;SDS011;5753;54.402;10.220;2023-07-22T07:31:38;0.70;;;0.70;;
11394;SDS011;5753;54.402;10.220;2023-07-22T07:34:04;0.80;;;0.68;;
11394;SDS011;5753;54.402;10.220;2023-07-22T07:36:33;6.53;;;1.17;;
11394;SDS011;5753;54.402;10.220;2023-07-22T07:38:59;1.42;;;1.33;;
11394;SDS011;5753;54.402;10.220;2023-07-22T07:41:26;1.05;;;0.95;;
11394;SDS011;5753;54.402;10.220;2023-07-22T07:43:52;1.48;;;0.90;;
11394;SDS011;5753;54.402;10.220;2023-07-22T07:48:52;1.45;;;0.80;;
11394;SDS011;5753;54.402;10.220;2023-07-22T07:51:20;1.25;;;0.80;;
11394;SDS011;5753;54.402;10.220;2023-07-22T07:53:49;2.47;;;0.82;;
11394;SDS011;5753;54.402;10.220;2023-07-22T07:56:16;3.30;;;1.63;;
11394;SDS011;5753;54.402;10.220;2023-07-22T07:58:43;1.20;;;1.10;;
11394;SDS011;5753;54.402;10.220;2023-07-22T08:01:10;2.80;;;2.08;;
11394;SDS011;5753;54.402;10.220;2023-07-22T08:03:37;1.88;;;0.90;;
11394;SDS011;5753;54.402;10.220;2023-07-22T08:06:04;1.00;;;1.00;;
11394;SDS011;5753;54.402;10.220;2023-07-22T08:08:31;2.25;;;1.23;;
11394;SDS011;5753;54.402;10.220;2023-07-22T08:13:34;1.60;;;1.02;;
11394;SDS011;5753;54.402;10.220;2023-07-22T08:16:02;2.15;;;1.33;;
11394;SDS011;5753;54.402;10.220;2023-07-22T08:18:29;2.25;;;1.10;;
11394;SDS011;5753;54.402;10.220;2023-07-22T08:20:56;1.98;;;0.85;;
11394;SDS011;5753;54.402;10.220;2023-07-22T08:23:22;1.38;;;0.80;;
11394;SDS011;5753;54.402;10.220;2023-07-22T08:25:49;2.25;;;0.82;;
11394;SDS011;5753;54.402;10.220;2023-07-22T08:28:15;1.42;;;1.30;;
11394;SDS011;5753;54.402;10.220;2023-07-22T08:30:41;10.98;;;1.55;;
11394;SDS011;5753;54.402;10.220;2023-07-22T08:33:08;1.90;;;0.85;;
11394;SDS011;5753;54.402;10.220;2023-07-22T08:35:36;2.17;;;0.98;;
11394;SDS011;5753;54.402;10.220;2023-07-22T08:38:03;3.30;;;1.35;;
11394;SDS011;5753;54.402;10.220;2023-07-22T08:40:33;2.70;;;0.75;;
11394;SDS011;5753;54.402;10.220;2023-07-22T08:43:01;1.95;;;1.00;;
11394;SDS011;5753;54.402;10.220;2023-07-22T08:45:30;1.33;;;0.80;;
11394;SDS011;5753;54.402;10.220;2023-07-22T08:47:59;1.67;;;0.90;;
11394;SDS011;5753;54.402;10.220;2023-07-22T08:50:29;0.98;;;0.98;;
11394;SDS011;5753;54.402;10.220;2023-07-22T08:52:59;1.58;;;0.93;;
11394;SDS011;5753;54.402;10.220;2023-07-22T08:55:26;2.88;;;0.88;;
11394;SDS011;5753;54.402;10.220;2023-07-22T08:57:52;4.32;;;1.75;;
11394;SDS011;5753;54.402;10.220;2023-07-22T09:00:20;6.72;;;1.45;;
11394;SDS011;5753;54.402;10.220;2023-07-22T09:02:46;0.82;;;0.70;;
11394;SDS011;5753;54.402;10.220;2023-07-22T09:05:13;0.40;;;0.40;;
11394;SDS011;5753;54.402;10.220;2023-07-22T09:07:40;0.88;;;0.80;;
11394;SDS011;5753;54.402;10.220;2023-07-22T09:10:07;4.78;;;1.13;;
11394;SDS011;5753;54.402;10.220;2023-07-22T09:12:35;1.08;;;0.93;;
11394;SDS011;5753;54.402;10.220;2023-07-22T09:15:06;2.20;;;0.50;;
11394;SDS011;5753;54.402;10.220;2023-07-22T09:17:39;4.05;;;1.48;;
11394;SDS011;5753;54.402;10.220;2023-07-22T09:20:06;1.15;;;0.98;;
11394;SDS011;5753;54.402;10.220;2023-07-22T09:22:33;1.58;;;0.98;;
11394;SDS011;5753;54.402;10.220;2023-07-22T09:25:15;1.25;;;0.73;;
11394;SDS011;5753;54.402;10.220;2023-07-22T09:27:49;2.72;;;1.42;;
11394;SDS011;5753;54.402;10.220;2023-07-22T09:32:46;3.70;;;2.20;;
11394;SDS011;5753;54.402;10.220;2023-07-22T09:35:12;3.35;;;0.93;;
11394;SDS011;5753;54.402;10.220;2023-07-22T09:37:38;4.13;;;1.10;;
11394;SDS011;5753;54.402;10.220;2023-07-22T09:40:13;1.65;;;0.75;;
11394;SDS011;5753;54.402;10.220;2023-07-22T09:42:50;5.03;;;1.42;;
11394;SDS011;5753;54.402;10.220;2023-07-22T09:45:24;2.40;;;1.00;;
11394;SDS011;5753;54.402;10.220;2023-07-22T09:47:51;0.98;;;0.90;;
11394;SDS011;5753;54.402;10.220;2023-07-22T09:50:20;1.27;;;0.95;;
11394;SDS011;5753;54.402;10.220;2023-07-22T09:52:51;1.05;;;0.98;;
11394;SDS011;5753;54.402;10.220;2023-07-22T09:55:22;1.17;;;1.02;;
11394;SDS011;5753;54.402;10.220;2023-07-22T09:57:56;2.63;;;0.77;;
11394;SDS011;5753;54.402;10.220;2023-07-22T10:00:31;1.20;;;0.70;;
11394;SDS011;5753;54.402;10.220;2023-07-22T10:02:58;0.57;;;0.40;;
11394;SDS011;5753;54.402;10.220;2023-07-22T10:05:27;1.33;;;0.77;;
11394;SDS011;5753;54.402;10.220;2023-07-22T10:07:55;1.13;;;0.95;;
11394;SDS011;5753;54.402;10.220;2023-07-22T10:10:24;2.88;;;0.65;;
11394;SDS011;5753;54.402;10.220;2023-07-22T10:12:56;6.43;;;1.15;;
11394;SDS011;5753;54.402;10.220;2023-07-22T10:15:23;2.95;;;0.98;;
11394;SDS011;5753;54.402;10.220;2023-07-22T10:17:51;1.42;;;1.02;;
11394;SDS011;5753;54.402;10.220;2023-07-22T10:20:18;1.23;;;1.10;;
11394;SDS011;5753;54.402;10.220;2023-07-22T10:22:46;3.28;;;1.23;;
11394;SDS011;5753;54.402;10.220;2023-07-22T10:25:15;1.13;;;0.75;;
11394;SDS011;5753;54.402;10.220;2023-07-22T10:30:15;1.40;;;0.70;;
11394;SDS011;5753;54.402;10.220;2023-07-22T10:32:46;4.35;;;1.83;;
11394;SDS011;5753;54.402;10.220;2023-07-22T10:38:11;6.00;;;1.13;;
11394;SDS011;5753;54.402;10.220;2023-07-22T10:40:47;2.03;;;0.63;;
11394;SDS011;5753;54.402;10.220;2023-07-22T10:43:16;1.33;;;1.10;;
11394;SDS011;5753;54.402;10.220;2023-07-22T10:45:49;1.45;;;0.85;;
11394;SDS011;5753;54.402;10.220;2023-07-22T10:48:17;2.65;;;1.83;;
11394;SDS011;5753;54.402;10.220;2023-07-22T10:50:44;1.40;;;0.73;;
11394;SDS011;5753;54.402;10.220;2023-07-22T10:58:54;3.60;;;0.88;;
11394;SDS011;5753;54.402;10.220;2023-07-22T11:04:10;0.28;;;0.28;;
11394;SDS011;5753;54.402;10.220;2023-07-22T11:11:53;3.00;;;1.80;;
11394;SDS011;5753;54.402;10.220;2023-07-22T11:14:50;0.65;;;0.65;;
11394;SDS011;5753;54.402;10.220;2023-07-22T11:17:18;2.90;;;1.25;;
11394;SDS011;5753;54.402;10.220;2023-07-22T11:19:56;1.65;;;0.90;;
11394;SDS011;5753;54.402;10.220;2023-07-22T11:22:24;1.50;;;0.95;;
11394;SDS011;5753;54.402;10.220;2023-07-22T11:24:50;1.17;;;0.80;;
11394;SDS011;5753;54.402;10.220;2023-07-22T11:27:17;1.48;;;1.15;;
11394;SDS011;5753;54.402;10.220;2023-07-22T11:29:44;1.00;;;0.85;;
11394;SDS011;5753;54.402;10.220;2023-07-22T11:32:17;1.25;;;0.95;;
11394;SDS011;5753;54.402;10.220;2023-07-22T11:34:47;1.00;;;0.80;;
11394;SDS011;5753;54.402;10.220;2023-07-22T11:37:15;1.95;;;1.38;;
11394;SDS011;5753;54.402;10.220;2023-07-22T11:39:43;1.38;;;0.80;;
11394;SDS011;5753;54.402;10.220;2023-07-22T11:42:09;0.70;;;0.68;;
11394;SDS011;5753;54.402;10.220;2023-07-22T11:44:37;1.83;;;1.10;;
11394;SDS011;5753;54.402;10.220;2023-07-22T11:47:05;6.57;;;1.40;;
11394;SDS011;5753;54.402;10.220;2023-07-22T11:49:38;4.93;;;1.08;;
11394;SDS011;5753;54.402;10.220;2023-07-22T11:54:33;2.88;;;0.98;;
11394;SDS011;5753;54.402;10.220;2023-07-22T11:57:17;0.70;;;0.70;;
11394;SDS011;5753;54.402;10.220;2023-07-22T11:59:43;1.40;;;1.25;;
11394;SDS011;5753;54.402;10.220;2023-07-22T12:02:14;1.30;;;0.80;;
11394;SDS011;5753;54.402;10.220;2023-07-22T12:04:42;6.22;;;3.22;;
11394;SDS011;5753;54.402;10.220;2023-07-22T12:09:56;1.15;;;1.05;;
11394;SDS011;5753;54.402;10.220;2023-07-22T12:12:36;1.50;;;1.40;;
11394;SDS011;5753;54.402;10.220;2023-07-22T12:17:43;3.22;;;1.23;;
11394;SDS011;5753;54.402;10.220;2023-07-22T12:20:10;1.15;;;0.80;;
11394;SDS011;5753;54.402;10.220;2023-07-22T12:22:37;2.15;;;0.93;;
11394;SDS011;5753;54.402;10.220;2023-07-22T12:25:03;1.08;;;0.70;;
11394;SDS011;5753;54.402;10.220;2023-07-22T12:27:30;1.38;;;0.98;;
11394;SDS011;5753;54.402;10.220;2023-07-22T12:29:56;1.17;;;0.88;;
11394;SDS011;5753;54.402;10.220;2023-07-22T12:32:23;1.80;;;1.58;;
11394;SDS011;5753;54.402;10.220;2023-07-22T12:34:49;1.27;;;0.82;;
11394;SDS011;5753;54.402;10.220;2023-07-22T12:37:15;1.95;;;1.00;;
11394;SDS011;5753;54.402;10.220;2023-07-22T12:39:41;0.80;;;0.80;;
11394;SDS011;5753;54.402;10.220;2023-07-22T12:42:07;2.08;;;1.63;;
11394;SDS011;5753;54.402;10.220;2023-07-22T12:44:33;1.50;;;1.20;;
11394;SDS011;5753;54.402;10.220;2023-07-22T12:46:59;2.72;;;1.25;;
11394;SDS011;5753;54.402;10.220;2023-07-22T12:49:25;0.82;;;0.75;;
11394;SDS011;5753;54.402;10.220;2023-07-22T12:51:51;5.38;;;0.77;;
11394;SDS011;5753;54.402;10.220;2023-07-22T12:54:17;1.85;;;1.35;;
11394;SDS011;5753;54.402;10.220;2023-07-22T12:56:43;1.58;;;0.70;;
11394;SDS011;5753;54.402;10.220;2023-07-22T12:59:10;2.95;;;1.67;;
11394;SDS011;5753;54.402;10.220;2023-07-22T13:01:36;1.27;;;0.88;;
11394;SDS011;5753;54.402;10.220;2023-07-22T13:04:04;1.98;;;1.40;;
11394;SDS011;5753;54.402;10.220;2023-07-22T13:06:30;2.83;;;2.63;;
11394;SDS011;5753;54.402;10.220;2023-07-22T13:08:56;1.80;;;1.08;;
11394;SDS011;5753;54.402;10.220;2023-07-22T13:11:22;3.08;;;1.20;;
11394;SDS011;5753;54.402;10.220;2023-07-22T13:13:48;3.67;;;1.00;;
11394;SDS011;5753;54.402;10.220;2023-07-22T13:16:15;2.00;;;0.90;;
11394;SDS011;5753;54.402;10.220;2023-07-22T13:18:41;1.15;;;1.00;;
11394;SDS011;5753;54.402;10.220;2023-07-22T13:21:07;1.70;;;1.13;;
11394;SDS011;5753;54.402;10.220;2023-07-22T13:23:33;1.48;;;0.90;;
11394;SDS011;5753;54.402;10.220;2023-07-22T13:26:00;2.88;;;1.02;;
11394;SDS011;5753;54.402;10.220;2023-07-22T13:28:26;5.35;;;0.70;;
11394;SDS011;5753;54.402;10.220;2023-07-22T13:30:52;2.75;;;1.30;;
11394;SDS011;5753;54.402;10.220;2023-07-22T13:33:18;1.13;;;1.02;;
11394;SDS011;5753;54.402;10.220;2023-07-22T13:35:44;1.52;;;1.05;;
11394;SDS011;5753;54.402;10.220;2023-07-22T13:38:10;2.47;;;0.95;;
11394;SDS011;5753;54.402;10.220;2023-07-22T13:40:36;5.07;;;1.23;;
11394;SDS011;5753;54.402;10.220;2023-07-22T13:43:02;1.25;;;0.82;;
11394;SDS011;5753;54.402;10.220;2023-07-22T13:45:29;2.28;;;0.95;;
11394;SDS011;5753;54.402;10.220;2023-07-22T13:47:55;3.95;;;1.30;;
11394;SDS011;5753;54.402;10.220;2023-07-22T13:50:21;1.40;;;1.20;;
11394;SDS011;5753;54.402;10.220;2023-07-22T13:52:49;4.53;;;1.35;;
11394;SDS011;5753;54.402;10.220;2023-07-22T13:55:16;1.65;;;1.20;;
11394;SDS011;5753;54.402;10.220;2023-07-22T13:57:42;4.32;;;1.40;;
11394;SDS011;5753;54.402;10.220;2023-07-22T14:00:08;3.08;;;2.42;;
11394;SDS011;5753;54.402;10.220;2023-07-22T14:02:35;3.83;;;2.28;;
11394;SDS011;5753;54.402;10.220;2023-07-22T14:05:02;9.80;;;3.50;;
11394;SDS011;5753;54.402;10.220;2023-07-22T14:07:29;7.70;;;3.10;;
11394;SDS011;5753;54.402;10.220;2023-07-22T14:09:55;6.50;;;2.13;;
11394;SDS011;5753;54.402;10.220;2023-07-22T14:12:21;8.05;;;2.10;;
11394;SDS011;5753;54.402;10.220;2023-07-22T14:14:47;4.93;;;2.15;;
11394;SDS011;5753;54.402;10.220;2023-07-22T14:17:13;4.45;;;2.90;;
11394;SDS011;5753;54.402;10.220;2023-07-22T14:19:39;8.80;;;4.40;;
11394;SDS011;5753;54.402;10.220;2023-07-22T14:22:06;2.03;;;1.60;;
11394;SDS011;5753;54.402;10.220;2023-07-22T14:24:33;2.38;;;1.88;;
11394;SDS011;5753;54.402;10.220;2023-07-22T14:26:59;3.45;;;2.17;;
11394;SDS011;5753;54.402;10.220;2023-07-22T14:29:25;2.72;;;2.50;;
11394;SDS011;5753;54.402;10.220;2023-07-22T14:31:51;2.72;;;1.52;;
11394;SDS011;5753;54.402;10.220;2023-07-22T14:34:20;2.55;;;2.22;;
11394;SDS011;5753;54.402;10.220;2023-07-22T14:36:46;13.15;;;2.63;;
11394;SDS011;5753;54.402;10.220;2023-07-22T14:39:12;6.45;;;3.33;;
11394;SDS011;5753;54.402;10.220;2023-07-22T14:41:40;3.33;;;2.47;;
11394;SDS011;5753;54.402;10.220;2023-07-22T14:44:08;5.20;;;3.53;;
11394;SDS011;5753;54.402;10.220;2023-07-22T14:46:34;3.13;;;2.58;;
11394;SDS011;5753;54.402;10.220;2023-07-22T14:49:01;3.50;;;3.03;;
11394;SDS011;5753;54.402;10.220;2023-07-22T14:51:27;7.20;;;3.45;;
11394;SDS011;5753;54.402;10.220;2023-07-22T14:53:53;7.50;;;3.55;;
11394;SDS011;5753;54.402;10.220;2023-07-22T14:56:19;5.55;;;3.60;;
11394;SDS011;5753;54.402;10.220;2023-07-22T14:58:45;7.47;;;4.50;;
11394;SDS011;5753;54.402;10.220;2023-07-22T15:01:14;4.53;;;2.90;;
11394;SDS011;5753;54.402;10.220;2023-07-22T15:03:40;9.93;;;4.15;;
11394;SDS011;5753;54.402;10.220;2023-07-22T15:06:06;5.65;;;3.35;;
11394;SDS011;5753;54.402;10.220;2023-07-22T15:08:32;7.53;;;5.32;;
11394;SDS011;5753;54.402;10.220;2023-07-22T15:10:58;6.00;;;3.17;;
11394;SDS011;5753;54.402;10.220;2023-07-22T15:13:24;3.80;;;3.08;;
11394;SDS011;5753;54.402;10.220;2023-07-22T15:15:53;7.05;;;4.97;;
11394;SDS011;5753;54.402;10.220;2023-07-22T15:18:22;4.63;;;3.75;;
11394;SDS011;5753;54.402;10.220;2023-07-22T15:20:52;5.55;;;4.07;;